createdAt,value
2022-11-28T00:01:41.310Z,5.56
2022-11-28T00:04:08.997Z,5.51
2022-11-28T00:06:40.840Z,5.50
2022-11-28T00:09:08.360Z,5.45
2022-11-28T00:11:35.076Z,5.38
2022-11-28T00:14:01.678Z,5.46
2022-11-28T00:16:28.289Z,5.42
2022-11-28T00:18:55.131Z,5.39
2022-11-28T00:21:22.850Z,5.17
2022-11-28T00:23:50.343Z,5.34
2022-11-28T00:26:21.107Z,5.33
2022-11-28T00:28:48.293Z,5.28
2022-11-28T00:31:26.824Z,5.13
2022-11-28T00:33:53.835Z,5.19
2022-11-28T00:36:21.477Z,5.21
2022-11-28T00:38:48.414Z,5.00
2022-11-28T00:41:23.054Z,5.02
2022-11-28T00:43:50.731Z,5.08
2022-11-28T00:46:18.858Z,5.06
2022-11-28T00:48:45.713Z,5.08
2022-11-28T00:51:14.980Z,5.08
2022-11-28T00:53:43.326Z,5.09
2022-11-28T00:56:12.844Z,5.11
2022-11-28T00:58:40.270Z,5.12
2022-11-28T01:01:14.633Z,5.08
2022-11-28T01:03:42.144Z,5.04
2022-11-28T01:06:10.380Z,5.02
2022-11-28T01:08:37.356Z,4.96
2022-11-28T01:11:10.389Z,5.10
2022-11-28T01:13:36.923Z,5.14
2022-11-28T01:16:03.863Z,5.10
2022-11-28T01:18:30.467Z,5.10
2022-11-28T01:20:57.146Z,4.99
2022-11-28T01:23:23.819Z,5.02
2022-11-28T01:25:50.473Z,4.95
2022-11-28T01:28:16.990Z,4.81
2022-11-28T01:30:43.545Z,4.93
2022-11-28T01:33:10.116Z,4.97
2022-11-28T01:35:36.680Z,4.96
2022-11-28T01:38:03.280Z,4.92
2022-11-28T01:40:29.939Z,4.94
2022-11-28T01:42:56.564Z,4.95
2022-11-28T01:45:27.965Z,4.99
2022-11-28T01:47:58.743Z,4.94
2022-11-28T01:50:26.799Z,5.05
2022-11-28T01:52:57.715Z,5.02
2022-11-28T01:55:28.595Z,5.01
2022-11-28T01:57:56.131Z,5.01
2022-11-28T02:00:22.888Z,4.83
2022-11-28T02:03:05.557Z,4.76
2022-11-28T02:05:32.766Z,4.90
2022-11-28T02:07:59.623Z,4.93
2022-11-28T02:10:56.742Z,4.93
2022-11-28T02:13:45.376Z,4.99
2022-11-28T02:16:20.908Z,5.00
2022-11-28T02:19:08.881Z,4.99
2022-11-28T02:21:49.529Z,5.02
2022-11-28T02:25:14.550Z,5.04
2022-11-28T02:27:55.227Z,5.03
2022-11-28T02:30:29.198Z,4.97
2022-11-28T02:33:03.054Z,4.96
2022-11-28T02:35:51.345Z,4.99
2022-11-28T02:38:50.133Z,5.00
2022-11-28T02:41:38.667Z,5.04
2022-11-28T02:44:11.186Z,5.08
2022-11-28T02:46:58.939Z,4.91
2022-11-28T02:49:38.415Z,5.09
2022-11-28T02:52:10.261Z,5.11
2022-11-28T02:54:39.643Z,5.07
2022-11-28T02:57:06.358Z,5.10
2022-11-28T02:59:38.630Z,5.12
2022-11-28T03:02:13.319Z,5.09
2022-11-28T03:05:05.729Z,5.07
2022-11-28T03:08:01.172Z,5.08
2022-11-28T03:10:46.355Z,5.09
2022-11-28T03:13:15.857Z,5.06
2022-11-28T03:16:11.202Z,5.04
2022-11-28T03:18:50.771Z,4.95
2022-11-28T03:21:32.969Z,5.08
2022-11-28T03:24:30.014Z,5.09
2022-11-28T03:27:08.835Z,5.14
2022-11-28T03:29:48.764Z,5.13
2022-11-28T03:32:22.932Z,5.11
2022-11-28T03:34:56.526Z,5.10
2022-11-28T03:37:33.952Z,5.04
2022-11-28T03:40:05.597Z,5.02
2022-11-28T03:42:40.496Z,4.96
2022-11-28T03:45:25.055Z,5.03
2022-11-28T03:47:59.414Z,5.04
2022-11-28T03:50:33.981Z,5.06
2022-11-28T03:53:05.983Z,5.03
2022-11-28T03:55:39.817Z,5.03
2022-11-28T03:58:09.336Z,5.06
2022-11-28T04:00:42.574Z,5.05
2022-11-28T04:03:24.494Z,4.89
2022-11-28T04:06:02.444Z,5.04
2022-11-28T04:09:03.586Z,5.08
2022-11-28T04:11:45.117Z,5.04
2022-11-28T04:14:29.471Z,5.06
2022-11-28T04:17:10.222Z,5.05
2022-11-28T04:19:45.272Z,5.07
2022-11-28T04:22:27.305Z,5.09
2022-11-28T04:25:10.159Z,5.06
2022-11-28T04:27:44.134Z,5.03
2022-11-28T04:30:12.540Z,4.94
2022-11-28T04:32:46.324Z,4.93
2022-11-28T04:35:20.350Z,4.84
2022-11-28T04:37:49.215Z,4.96
2022-11-28T04:40:17.256Z,4.45
2022-11-28T04:42:55.868Z,4.98
2022-11-28T04:45:29.439Z,4.87
2022-11-28T04:47:56.426Z,5.00
2022-11-28T04:50:25.627Z,4.99
2022-11-28T04:52:57.035Z,4.96
2022-11-28T04:55:42.260Z,4.97
2022-11-28T04:58:16.365Z,4.96
2022-11-28T05:00:44.300Z,4.89
2022-11-28T05:03:11.270Z,4.96
2022-11-28T05:05:51.491Z,4.93
2022-11-28T05:08:19.024Z,4.97
2022-11-28T05:10:46.715Z,5.04
2022-11-28T05:13:13.759Z,5.09
2022-11-28T05:15:40.337Z,5.17
2022-11-28T05:18:06.942Z,5.10
2022-11-28T05:20:34.401Z,5.24
2022-11-28T05:23:00.937Z,5.17
2022-11-28T05:25:27.509Z,5.16
2022-11-28T05:27:54.055Z,5.19
2022-11-28T05:30:20.759Z,5.26
2022-11-28T05:32:47.746Z,5.28
2022-11-28T05:35:14.356Z,5.28
2022-11-28T05:37:41.098Z,5.07
2022-11-28T05:40:08.328Z,5.20
2022-11-28T05:42:35.892Z,5.20
2022-11-28T05:45:03.226Z,5.15
2022-11-28T05:47:31.789Z,5.06
2022-11-28T05:49:58.489Z,5.07
2022-11-28T05:52:25.095Z,5.04
2022-11-28T05:54:51.602Z,5.09
2022-11-28T05:57:18.187Z,5.11
2022-11-28T05:59:45.180Z,5.02
2022-11-28T06:02:12.029Z,4.88
2022-11-28T06:04:41.722Z,4.96
2022-11-28T06:07:08.752Z,4.88
2022-11-28T06:09:35.329Z,4.96
2022-11-28T06:12:02.071Z,5.02
2022-11-28T06:14:28.695Z,5.08
2022-11-28T06:16:55.319Z,4.95
2022-11-28T06:19:21.916Z,5.13
2022-11-28T06:21:50.941Z,5.10
2022-11-28T06:24:17.909Z,5.09
2022-11-28T06:26:44.529Z,4.93
2022-11-28T06:29:11.069Z,5.03
2022-11-28T06:31:37.657Z,5.08
2022-11-28T06:34:04.275Z,5.13
2022-11-28T06:36:31.009Z,5.10
2022-11-28T06:38:57.779Z,5.14
2022-11-28T06:41:24.371Z,5.16
2022-11-28T06:43:51.028Z,5.04
2022-11-28T06:46:20.587Z,5.28
2022-11-28T06:48:48.734Z,5.28
2022-11-28T06:51:16.271Z,5.36
2022-11-28T06:53:43.246Z,5.32
2022-11-28T06:56:14.042Z,5.32
2022-11-28T06:58:41.630Z,5.28
2022-11-28T07:01:11.916Z,5.24
2022-11-28T07:03:39.475Z,5.09
2022-11-28T07:06:06.968Z,5.25
2022-11-28T07:08:34.473Z,5.14
2022-11-28T07:11:21.966Z,5.25
2022-11-28T07:13:49.750Z,5.12
2022-11-28T07:16:19.960Z,5.28
2022-11-28T07:18:47.054Z,5.25
2022-11-28T07:21:14.813Z,5.46
2022-11-28T07:23:42.797Z,5.44
2022-11-28T07:26:11.355Z,5.31
2022-11-28T07:28:38.144Z,5.27
2022-11-28T07:31:07.625Z,5.33
2022-11-28T07:33:35.351Z,5.30
2022-11-28T07:36:08.190Z,5.22
2022-11-28T07:38:34.826Z,5.20
2022-11-28T07:41:12.987Z,5.17
2022-11-28T07:43:40.814Z,5.27
2022-11-28T07:46:09.409Z,5.30
2022-11-28T07:48:36.366Z,5.38
2022-11-28T07:51:08.170Z,5.52
2022-11-28T07:53:35.434Z,5.39
2022-11-28T07:56:06.977Z,5.36
2022-11-28T07:58:35.368Z,5.36
2022-11-28T08:01:12.380Z,5.34
2022-11-28T08:03:38.885Z,5.52
2022-11-28T08:06:06.545Z,5.41
2022-11-28T08:08:33.608Z,5.59
2022-11-28T08:11:02.162Z,5.64
2022-11-28T08:13:29.353Z,5.61
2022-11-28T08:15:56.006Z,5.63
2022-11-28T08:18:23.156Z,5.63
2022-11-28T08:20:50.437Z,5.61
2022-11-28T08:23:16.986Z,5.60
2022-11-28T08:25:43.569Z,5.62
2022-11-28T08:28:10.346Z,5.62
2022-11-28T08:30:36.900Z,5.58
2022-11-28T08:33:04.077Z,5.48
2022-11-28T08:35:31.219Z,5.62
2022-11-28T08:38:01.753Z,5.52
2022-11-28T08:40:28.971Z,5.58
2022-11-28T08:42:55.907Z,5.61
2022-11-28T08:45:22.535Z,5.72
2022-11-28T08:47:49.132Z,5.62
2022-11-28T08:50:15.860Z,5.75
2022-11-28T08:52:42.391Z,5.77
2022-11-28T08:55:09.299Z,5.87
2022-11-28T08:57:35.852Z,5.89
2022-11-28T09:00:02.551Z,5.92
2022-11-28T09:02:29.125Z,5.89
2022-11-28T09:04:55.717Z,5.90
2022-11-28T09:07:22.376Z,5.97
2022-11-28T09:09:49.264Z,5.97
2022-11-28T09:12:16.269Z,5.92
2022-11-28T09:14:42.829Z,5.94
2022-11-28T09:17:09.479Z,5.90
2022-11-28T09:19:36.117Z,5.99
2022-11-28T09:22:02.626Z,6.05
2022-11-28T09:24:29.183Z,6.20
2022-11-28T09:26:55.763Z,6.29
2022-11-28T09:29:22.409Z,6.40
2022-11-28T09:31:49.021Z,6.43
2022-11-28T09:34:15.907Z,6.48
2022-11-28T09:36:42.461Z,6.53
2022-11-28T09:39:09.151Z,6.57
2022-11-28T09:42:13.753Z,6.61
2022-11-28T09:45:07.161Z,6.62
2022-11-28T09:47:37.218Z,6.65
2022-11-28T09:50:15.380Z,6.68
2022-11-28T09:53:12.965Z,6.71
2022-11-28T09:55:54.580Z,6.73
2022-11-28T09:58:58.992Z,6.79
2022-11-28T10:01:34.407Z,6.84
2022-11-28T10:04:04.043Z,6.91
2022-11-28T10:07:09.382Z,6.89
2022-11-28T10:09:46.627Z,6.87
2022-11-28T10:12:39.106Z,6.93
2022-11-28T10:15:11.640Z,6.93
2022-11-28T10:17:59.456Z,6.80
2022-11-28T10:20:32.192Z,6.92
2022-11-28T10:23:16.729Z,6.99
2022-11-28T10:25:57.128Z,7.00
2022-11-28T10:28:31.659Z,6.95
2022-11-28T10:31:06.913Z,7.04
2022-11-28T10:33:41.759Z,7.15
2022-11-28T10:36:16.392Z,6.94
2022-11-28T10:38:43.834Z,6.87
2022-11-28T10:41:20.791Z,6.76
2022-11-28T10:43:57.593Z,6.66
2022-11-28T10:46:46.852Z,6.73
2022-11-28T10:49:35.213Z,6.80
2022-11-28T10:52:06.795Z,7.01
2022-11-28T10:55:07.483Z,7.03
2022-11-28T10:57:43.421Z,7.12
2022-11-28T11:00:18.376Z,7.23
2022-11-28T11:02:50.830Z,7.31
2022-11-28T11:05:20.600Z,7.35
2022-11-28T11:08:26.917Z,7.41
2022-11-28T11:11:24.123Z,7.51
2022-11-28T11:14:01.975Z,7.58
2022-11-28T11:16:49.295Z,7.68
2022-11-28T11:19:36.858Z,7.76
2022-11-28T11:22:12.517Z,7.82
2022-11-28T11:24:39.063Z,7.88
2022-11-28T11:27:18.346Z,7.93
2022-11-28T11:29:48.158Z,7.82
2022-11-28T11:32:23.643Z,8.02
2022-11-28T11:34:50.633Z,8.08
2022-11-28T11:37:19.418Z,7.99
2022-11-28T11:39:51.656Z,8.12
2022-11-28T11:42:27.348Z,7.98
2022-11-28T11:44:54.484Z,7.91
2022-11-28T11:47:40.893Z,7.89
2022-11-28T11:50:17.546Z,7.63
2022-11-28T11:52:44.537Z,7.60
2022-11-28T11:55:15.911Z,7.65
2022-11-28T11:57:52.802Z,7.73
2022-11-28T12:00:22.469Z,7.71
2022-11-28T12:02:56.909Z,7.59
2022-11-28T12:06:12.656Z,7.55
2022-11-28T12:08:39.455Z,7.72
2022-11-28T12:11:11.106Z,7.62
2022-11-28T12:13:37.740Z,7.84
2022-11-28T12:16:32.029Z,7.76
2022-11-28T12:19:04.536Z,7.73
2022-11-28T12:21:50.695Z,7.61
2022-11-28T12:24:27.076Z,7.64
2022-11-28T12:27:11.915Z,7.60
2022-11-28T12:30:16.235Z,7.64
2022-11-28T12:33:11.927Z,7.79
2022-11-28T12:35:41.594Z,7.91
2022-11-28T12:38:33.715Z,7.99
2022-11-28T12:41:52.791Z,8.04
2022-11-28T12:44:30.595Z,7.94
2022-11-28T12:47:11.391Z,7.59
2022-11-28T12:49:59.143Z,7.67
2022-11-28T12:53:00.005Z,7.72
2022-11-28T12:55:44.459Z,7.75
2022-11-28T12:58:16.720Z,7.70
2022-11-28T13:00:58.495Z,7.68
2022-11-28T13:03:25.125Z,7.79
2022-11-28T13:06:17.103Z,7.70
2022-11-28T13:09:29.438Z,7.33
2022-11-28T13:12:23.012Z,7.32
2022-11-28T13:15:08.580Z,6.97
2022-11-28T13:17:37.725Z,7.08
2022-11-28T13:20:16.374Z,7.09
2022-11-28T13:22:59.705Z,7.02
2022-11-28T13:25:44.947Z,6.97
2022-11-28T13:28:17.634Z,6.90
2022-11-28T13:30:52.949Z,6.83
2022-11-28T13:34:07.810Z,6.84
2022-11-28T13:40:14.684Z,6.92
2022-11-28T13:43:04.029Z,6.83
2022-11-28T13:45:42.237Z,6.75
2022-11-28T13:48:57.625Z,6.75
2022-11-28T13:51:32.708Z,6.61
2022-11-28T13:54:18.193Z,6.58
2022-11-28T13:56:46.360Z,6.74
2022-11-28T13:59:20.085Z,6.61
2022-11-28T14:01:55.905Z,6.75
2022-11-28T14:04:22.748Z,6.75
2022-11-28T14:07:01.118Z,6.74
2022-11-28T14:09:44.870Z,6.76
2022-11-28T14:13:02.609Z,6.80
2022-11-28T14:15:53.976Z,6.81
2022-11-28T14:18:57.136Z,6.80
2022-11-28T14:21:40.061Z,6.63
2022-11-28T14:24:06.603Z,6.82
2022-11-28T14:26:39.542Z,6.80
2022-11-28T14:29:18.770Z,6.92
2022-11-28T14:32:06.580Z,7.00
2022-11-28T14:34:41.842Z,7.06
2022-11-28T14:37:31.451Z,6.99
2022-11-28T14:39:58.108Z,6.96
2022-11-28T14:42:59.131Z,6.95
2022-11-28T14:45:32.577Z,6.86
2022-11-28T14:48:28.009Z,6.68
2022-11-28T14:51:00.997Z,6.82
2022-11-28T14:53:37.054Z,6.86
2022-11-28T14:56:13.761Z,6.85
2022-11-28T14:58:47.229Z,6.88
2022-11-28T15:01:23.054Z,6.90
2022-11-28T15:03:53.887Z,6.90
2022-11-28T15:06:24.912Z,6.87
2022-11-28T15:09:29.188Z,6.85
2022-11-28T15:12:23.101Z,6.73
2022-11-28T15:14:56.587Z,6.82
2022-11-28T15:17:30.644Z,6.81
2022-11-28T15:20:02.518Z,6.66
2022-11-28T15:22:41.136Z,6.73
2022-11-28T15:25:37.506Z,6.69
2022-11-28T15:28:14.999Z,6.52
2022-11-28T15:30:51.332Z,6.68
2022-11-28T15:33:18.741Z,6.66
2022-11-28T15:35:57.136Z,6.63
2022-11-28T15:38:24.197Z,6.64
2022-11-28T15:40:52.683Z,6.65
2022-11-28T15:43:19.707Z,6.74
2022-11-28T15:45:58.866Z,6.79
2022-11-28T15:48:39.323Z,6.82
2022-11-28T15:51:06.923Z,6.83
2022-11-28T15:53:33.640Z,6.78
2022-11-28T15:56:11.361Z,6.82
2022-11-28T15:58:38.328Z,6.84
2022-11-28T16:01:15.288Z,6.86
2022-11-28T16:03:45.747Z,6.86
2022-11-28T16:06:12.816Z,6.85
2022-11-28T16:08:46.024Z,6.80
2022-11-28T16:11:17.542Z,6.83
2022-11-28T16:13:45.412Z,6.81
2022-11-28T16:16:18.067Z,6.81
2022-11-28T16:18:56.246Z,6.83
2022-11-28T16:21:44.611Z,6.83
2022-11-28T16:24:30.245Z,6.85
2022-11-28T16:27:05.462Z,6.84
2022-11-28T16:29:36.705Z,6.72
2022-11-28T16:32:21.954Z,6.82
2022-11-28T16:34:51.141Z,6.78
2022-11-28T16:37:27.575Z,6.73
2022-11-28T16:40:10.730Z,6.59
2022-11-28T16:42:37.330Z,6.74
2022-11-28T16:45:15.869Z,6.76
2022-11-28T16:47:43.709Z,6.78
2022-11-28T16:50:15.602Z,6.74
2022-11-28T16:52:53.794Z,6.81
2022-11-28T16:55:33.128Z,6.86
2022-11-28T16:58:13.191Z,6.86
2022-11-28T17:00:44.237Z,6.83
2022-11-28T17:03:43.267Z,6.81
2022-11-28T17:06:19.280Z,6.79
2022-11-28T17:08:46.125Z,6.79
2022-11-28T17:11:15.744Z,6.64
2022-11-28T17:13:42.886Z,6.76
2022-11-28T17:16:22.149Z,6.73
2022-11-28T17:18:49.588Z,6.74
2022-11-28T17:21:18.962Z,6.68
2022-11-28T17:23:45.638Z,6.73
2022-11-28T17:26:12.248Z,6.69
2022-11-28T17:28:39.083Z,6.51
2022-11-28T17:31:05.964Z,6.64
2022-11-28T17:33:32.596Z,6.65
2022-11-28T17:36:00.123Z,6.66
2022-11-28T17:38:26.771Z,6.68
2022-11-28T17:40:53.595Z,6.67
2022-11-28T17:43:21.960Z,6.69
2022-11-28T17:45:50.680Z,6.69
2022-11-28T17:48:18.035Z,6.72
2022-11-28T17:50:48.051Z,6.75
2022-11-28T17:53:18.229Z,6.64
2022-11-28T17:55:47.147Z,6.83
2022-11-28T17:58:16.244Z,6.81
2022-11-28T18:00:43.735Z,6.67
2022-11-28T18:03:10.450Z,6.76
2022-11-28T18:05:38.761Z,6.67
2022-11-28T18:08:05.449Z,6.78
2022-11-28T18:10:32.019Z,6.76
2022-11-28T18:12:58.608Z,6.81
2022-11-28T18:15:25.270Z,6.79
2022-11-28T18:17:52.669Z,6.84
2022-11-28T18:20:20.084Z,6.86
2022-11-28T18:22:47.340Z,6.88
2022-11-28T18:25:14.050Z,6.84
2022-11-28T18:27:40.821Z,6.81
2022-11-28T18:30:08.457Z,6.75
2022-11-28T18:32:35.101Z,6.73
2022-11-28T18:35:01.672Z,6.71
2022-11-28T18:37:28.295Z,6.69
2022-11-28T18:39:54.854Z,6.54
2022-11-28T18:42:21.545Z,6.63
2022-11-28T18:44:48.081Z,6.61
2022-11-28T18:47:14.618Z,6.62
2022-11-28T18:49:41.358Z,6.53
2022-11-28T18:52:08.042Z,6.55
2022-11-28T18:54:34.943Z,6.63
2022-11-28T18:57:01.528Z,6.63
2022-11-28T18:59:28.596Z,6.64
2022-11-28T19:01:55.245Z,6.48
2022-11-28T19:04:21.912Z,6.62
2022-11-28T19:06:48.682Z,6.64
2022-11-28T19:09:17.254Z,6.59
2022-11-28T19:11:44.833Z,6.67
2022-11-28T19:14:18.938Z,6.67
2022-11-28T19:16:46.997Z,6.64
2022-11-28T19:19:13.663Z,6.69
2022-11-28T19:21:40.506Z,6.67
2022-11-28T19:24:08.563Z,6.65
2022-11-28T19:26:35.864Z,6.64
2022-11-28T19:29:02.701Z,6.69
2022-11-28T19:31:32.418Z,6.69
2022-11-28T19:34:02.125Z,6.71
2022-11-28T19:36:31.028Z,6.68
2022-11-28T19:38:58.811Z,6.52
2022-11-28T19:41:26.770Z,6.39
2022-11-28T19:43:53.403Z,6.67
2022-11-28T19:46:20.696Z,6.68
2022-11-28T19:48:47.485Z,6.67
2022-11-28T19:51:15.883Z,6.68
2022-11-28T19:53:43.666Z,6.67
2022-11-28T19:56:16.387Z,6.72
2022-11-28T19:58:43.727Z,6.74
2022-11-28T20:01:16.132Z,6.74
2022-11-28T20:03:43.560Z,6.61
2022-11-28T20:06:30.962Z,6.78
2022-11-28T20:09:15.743Z,6.78
2022-11-28T20:11:43.746Z,6.60
2022-11-28T20:14:14.155Z,6.79
2022-11-28T20:16:40.974Z,6.80
2022-11-28T20:19:07.843Z,6.82
2022-11-28T20:21:35.432Z,6.80
2022-11-28T20:24:05.170Z,6.64
2022-11-28T20:26:35.147Z,6.74
2022-11-28T20:29:01.764Z,6.66
2022-11-28T20:31:31.201Z,6.81
2022-11-28T20:33:58.545Z,6.81
2022-11-28T20:36:27.033Z,6.81
2022-11-28T20:38:54.983Z,6.84
2022-11-28T20:41:23.152Z,6.84
2022-11-28T20:43:50.621Z,6.88
2022-11-28T20:46:27.115Z,6.88
2022-11-28T20:48:54.356Z,6.89
2022-11-28T20:51:24.963Z,6.90
2022-11-28T20:53:52.430Z,6.93
2022-11-28T20:56:22.215Z,6.88
2022-11-28T20:58:49.911Z,6.88
2022-11-28T21:01:19.457Z,6.88
2022-11-28T21:03:46.577Z,6.89
2022-11-28T21:06:13.685Z,6.91
2022-11-28T21:08:40.488Z,6.93
2022-11-28T21:11:30.501Z,6.89
2022-11-28T21:13:57.912Z,6.96
2022-11-28T21:16:31.305Z,6.89
2022-11-28T21:19:03.175Z,6.87
2022-11-28T21:21:31.958Z,7.04
2022-11-28T21:24:11.418Z,7.04
2022-11-28T21:26:42.388Z,7.07
2022-11-28T21:29:12.571Z,7.03
2022-11-28T21:31:44.551Z,7.02
2022-11-28T21:34:14.462Z,6.97
2022-11-28T21:36:42.142Z,7.00
2022-11-28T21:39:12.705Z,6.88
2022-11-28T21:41:39.314Z,7.03
2022-11-28T21:44:05.897Z,6.87
2022-11-28T21:46:32.507Z,7.00
2022-11-28T21:48:59.028Z,6.94
2022-11-28T21:51:28.579Z,6.94
2022-11-28T21:53:57.309Z,6.94
2022-11-28T21:56:24.431Z,6.89
2022-11-28T21:58:51.358Z,6.86
2022-11-28T22:01:18.463Z,6.83
2022-11-28T22:03:45.162Z,6.82
2022-11-28T22:06:16.457Z,6.77
2022-11-28T22:08:43.374Z,6.75
2022-11-28T22:11:11.338Z,6.70
2022-11-28T22:13:38.801Z,6.56
2022-11-28T22:16:12.850Z,6.64
2022-11-28T22:18:39.649Z,6.60
2022-11-28T22:21:28.646Z,6.59
2022-11-28T22:23:55.314Z,6.54
2022-11-28T22:26:22.132Z,6.54
2022-11-28T22:28:53.635Z,6.58
2022-11-28T22:31:20.986Z,6.53
2022-11-28T22:33:49.909Z,6.49
2022-11-28T22:36:18.813Z,6.52
2022-11-28T22:38:46.445Z,6.51
2022-11-28T22:41:15.468Z,6.46
2022-11-28T22:43:42.414Z,6.35
2022-11-28T22:46:10.176Z,6.43
2022-11-28T22:48:38.534Z,6.44
2022-11-28T22:51:10.468Z,6.36
2022-11-28T22:53:37.312Z,6.42
2022-11-28T22:56:05.450Z,6.39
2022-11-28T22:58:39.443Z,6.40
2022-11-28T23:01:13.837Z,6.46
2022-11-28T23:03:40.845Z,6.47
2022-11-28T23:06:13.286Z,6.44
2022-11-28T23:08:39.968Z,6.44
2022-11-28T23:11:14.934Z,6.47
2022-11-28T23:13:42.164Z,6.42
2022-11-28T23:16:14.370Z,6.51
2022-11-28T23:18:42.019Z,6.52
2022-11-28T23:21:09.119Z,6.56
2022-11-28T23:23:36.826Z,6.56
2022-11-28T23:26:09.545Z,6.45
2022-11-28T23:28:37.168Z,6.58
2022-11-28T23:31:10.290Z,6.39
2022-11-28T23:33:38.075Z,6.52
2022-11-28T23:36:23.884Z,6.42
2022-11-28T23:38:53.723Z,6.44
2022-11-28T23:41:20.403Z,6.44
2022-11-28T23:43:46.995Z,6.46
2022-11-28T23:46:15.043Z,6.41
2022-11-28T23:48:43.686Z,6.42
2022-11-28T23:51:12.518Z,6.43
2022-11-28T23:53:40.577Z,6.45
2022-11-28T23:56:10.350Z,6.45
2022-11-28T23:58:37.544Z,6.48
